Time;durP1;ratioP1;P1;durP2;ratioP2;P2;SDS_P1;SDS_P2;PMS_P1;PMS_P2;Temp;Humidity;BMP_temperature;BMP_pressure;BME280_temperature;BME280_humidity;BME280_pressure;Samples;Min_cycle;Max_cycle;Signal;HPM_P1;HPM_P2
2023/12/04 00:00:36;;;;;;;38.88;20.55;;;0.10;99.90;;;;;;4993333;28;20089;-56
2023/12/04 00:03:01;;;;;;;41.47;20.77;;;0.20;99.90;;;;;;4988933;28;20047;-51
2023/12/04 00:05:27;;;;;;;40.63;20.73;;;0.20;99.90;;;;;;4970578;28;20049;-56
2023/12/04 00:07:53;;;;;;;42.70;20.40;;;0.20;99.90;;;;;;4965138;28;20053;-53
2023/12/04 00:10:18;;;;;;;36.70;19.63;;;0.10;99.90;;;;;;4967179;28;21112;-57
2023/12/04 00:12:44;;;;;;;40.28;20.58;;;0.10;99.90;;;;;;4988992;28;20035;-53
2023/12/04 00:15:10;;;;;;;41.63;20.77;;;0.10;99.90;;;;;;4995444;28;20045;-55
2023/12/04 00:17:39;;;;;;;38.17;20.15;;;0.10;99.90;;;;;;4960283;28;20100;-53
2023/12/04 00:20:07;;;;;;;41.97;21.15;;;0.10;99.90;;;;;;4993925;28;20057;-56
2023/12/04 00:22:33;;;;;;;38.15;20.80;;;0.10;99.90;;;;;;4990492;28;20054;-54
2023/12/04 00:24:59;;;;;;;40.78;20.95;;;0.10;99.90;;;;;;4997393;28;20057;-54
2023/12/04 00:27:27;;;;;;;40.95;21.13;;;0.20;99.90;;;;;;4991929;28;20050;-54
2023/12/04 00:29:53;;;;;;;41.85;21.63;;;0.10;99.90;;;;;;4990451;28;20487;-52
2023/12/04 00:32:19;;;;;;;43.55;22.25;;;0.10;99.90;;;;;;4995158;28;20482;-56
2023/12/04 00:34:45;;;;;;;42.92;21.77;;;0.10;99.90;;;;;;4994647;28;20058;-56
2023/12/04 00:37:10;;;;;;;41.85;22.10;;;0.10;99.90;;;;;;4990200;28;20047;-54
2023/12/04 00:39:36;;;;;;;38.40;20.33;;;0.10;99.90;;;;;;4994235;28;20041;-54
2023/12/04 00:42:02;;;;;;;43.70;21.77;;;0.10;99.90;;;;;;4993287;28;20092;-56
2023/12/04 00:44:28;;;;;;;39.20;20.85;;;0.10;99.90;;;;;;4992196;28;20491;-54
2023/12/04 00:46:54;;;;;;;46.00;22.10;;;0.10;99.90;;;;;;4991357;28;20076;-55
2023/12/04 00:49:19;;;;;;;44.97;22.05;;;0.10;99.90;;;;;;4969973;28;20096;-54
2023/12/04 00:51:45;;;;;;;42.70;22.23;;;0.10;99.90;;;;;;4990802;28;20495;-54
2023/12/04 00:54:11;;;;;;;42.38;21.52;;;0.10;99.90;;;;;;4991234;28;20054;-56
2023/12/04 00:56:40;;;;;;;45.42;22.90;;;0.10;99.90;;;;;;4987040;28;20054;-54
2023/12/04 00:59:07;;;;;;;44.13;23.20;;;0.20;99.90;;;;;;4988486;28;20082;-56
2023/12/04 01:01:33;;;;;;;41.00;21.40;;;0.10;99.90;;;;;;4990024;28;20049;-51
2023/12/04 01:04:00;;;;;;;40.47;21.52;;;0.10;99.90;;;;;;4973260;28;20050;-51
2023/12/04 01:06:25;;;;;;;44.60;22.02;;;0.10;99.90;;;;;;4989307;28;20046;-52
2023/12/04 01:08:52;;;;;;;38.40;21.00;;;0.10;99.90;;;;;;4989385;28;20042;-53
2023/12/04 01:11:19;;;;;;;39.15;20.63;;;0.10;99.90;;;;;;4989530;28;20042;-56
2023/12/04 01:13:45;;;;;;;46.45;20.83;;;0.10;99.90;;;;;;4987380;28;20612;-57
2023/12/04 01:16:11;;;;;;;42.40;21.70;;;0.00;99.90;;;;;;4988684;28;20042;-56
2023/12/04 01:18:36;;;;;;;41.72;21.60;;;0.00;99.90;;;;;;4988303;28;20573;-56
2023/12/04 01:21:02;;;;;;;46.42;22.58;;;0.10;99.90;;;;;;4984762;28;20034;-53
2023/12/04 01:23:28;;;;;;;39.75;21.40;;;0.00;99.90;;;;;;4987696;28;20113;-56
2023/12/04 01:25:54;;;;;;;41.20;20.65;;;0.00;99.90;;;;;;4988098;28;20038;-51
2023/12/04 01:28:19;;;;;;;37.67;19.67;;;0.00;99.90;;;;;;4986171;28;20050;-52
2023/12/04 01:30:45;;;;;;;40.80;20.02;;;0.00;99.90;;;;;;4987349;28;20105;-55
2023/12/04 01:33:11;;;;;;;38.42;20.15;;;0.00;99.90;;;;;;4987889;28;20050;-55
2023/12/04 01:35:36;;;;;;;42.13;20.83;;;0.00;99.90;;;;;;4970024;28;20050;-56
2023/12/04 01:38:02;;;;;;;38.85;20.98;;;0.00;99.90;;;;;;4981856;28;20056;-56
2023/12/04 01:40:28;;;;;;;41.67;20.80;;;0.00;99.90;;;;;;4986557;28;20185;-55
2023/12/04 01:42:53;;;;;;;39.10;19.83;;;0.10;99.90;;;;;;4975561;28;20046;-56
2023/12/04 01:45:19;;;;;;;39.63;19.80;;;0.00;99.90;;;;;;4956705;28;20041;-56
2023/12/04 01:47:46;;;;;;;37.22;19.83;;;0.00;99.90;;;;;;4987315;28;20054;-57
2023/12/04 01:50:13;;;;;;;37.72;19.77;;;0.00;99.90;;;;;;4990883;28;20101;-54
2023/12/04 01:52:40;;;;;;;36.38;18.75;;;0.10;99.90;;;;;;4990045;28;20301;-55
2023/12/04 01:55:08;;;;;;;38.35;19.38;;;0.10;99.90;;;;;;4993713;28;20054;-54
2023/12/04 01:57:34;;;;;;;38.17;19.35;;;0.10;99.90;;;;;;4992182;28;20693;-56
2023/12/04 02:00:00;;;;;;;42.63;20.23;;;0.00;99.90;;;;;;4993462;28;20085;-54
2023/12/04 02:02:29;;;;;;;38.67;19.30;;;0.10;99.90;;;;;;4990634;28;20129;-55
2023/12/04 02:04:57;;;;;;;37.63;18.75;;;0.10;99.90;;;;;;4990691;28;20037;-56
2023/12/04 02:07:23;;;;;;;37.85;19.67;;;0.10;99.90;;;;;;4987635;28;20117;-50
2023/12/04 02:09:50;;;;;;;35.30;19.38;;;0.10;99.90;;;;;;4991068;28;20510;-54
2023/12/04 02:12:16;;;;;;;37.05;19.48;;;0.10;99.90;;;;;;4991572;28;20037;-54
2023/12/04 02:14:43;;;;;;;34.90;20.00;;;0.10;99.90;;;;;;4990286;28;20275;-54
2023/12/04 02:17:09;;;;;;;39.65;19.38;;;0.10;99.90;;;;;;4989421;28;20058;-56
2023/12/04 02:19:35;;;;;;;36.97;19.38;;;0.10;99.90;;;;;;4989471;28;20505;-54
2023/12/04 02:22:01;;;;;;;35.08;18.45;;;0.10;99.90;;;;;;4989746;28;20050;-56
2023/12/04 02:24:28;;;;;;;39.42;20.27;;;0.10;99.90;;;;;;4990086;28;20052;-57
2023/12/04 02:27:01;;;;;;;41.50;19.85;;;0.10;99.90;;;;;;4985889;28;20041;-56
2023/12/04 02:29:32;;;;;;;37.67;19.33;;;0.10;99.90;;;;;;4988347;28;20093;-53
2023/12/04 02:32:02;;;;;;;37.30;19.70;;;0.10;99.90;;;;;;4991385;28;20041;-56
2023/12/04 02:34:29;;;;;;;36.63;19.15;;;0.10;99.90;;;;;;4992169;28;20050;-52
2023/12/04 02:36:56;;;;;;;36.88;19.40;;;0.10;99.90;;;;;;4989960;28;20092;-52
2023/12/04 02:39:22;;;;;;;39.83;20.02;;;0.10;99.90;;;;;;4972015;28;20057;-54
2023/12/04 02:41:48;;;;;;;34.90;18.60;;;0.10;99.90;;;;;;4988155;28;20038;-53
2023/12/04 02:44:14;;;;;;;39.67;20.00;;;0.10;99.90;;;;;;4990066;28;20050;-56
2023/12/04 02:46:40;;;;;;;39.45;19.00;;;0.10;99.90;;;;;;4970435;28;20045;-53
2023/12/04 02:49:06;;;;;;;38.60;19.50;;;0.10;99.90;;;;;;4991015;28;20092;-55
2023/12/04 02:51:31;;;;;;;38.95;19.13;;;0.10;99.90;;;;;;4987444;28;20117;-57
2023/12/04 02:53:57;;;;;;;38.38;19.27;;;0.10;99.90;;;;;;4978358;28;20045;-56
2023/12/04 02:56:23;;;;;;;37.08;18.70;;;0.10;99.90;;;;;;4988821;28;20044;-55
2023/12/04 02:58:48;;;;;;;37.20;18.70;;;0.10;99.90;;;;;;4987466;28;20035;-54
2023/12/04 03:01:14;;;;;;;36.72;19.63;;;0.20;99.90;;;;;;4989728;28;20069;-53
2023/12/04 03:03:40;;;;;;;32.80;18.52;;;0.10;99.90;;;;;;4987707;28;20038;-55
2023/12/04 03:06:06;;;;;;;37.08;18.60;;;0.10;99.90;;;;;;4985653;28;20046;-54
2023/12/04 03:08:31;;;;;;;38.55;19.33;;;0.20;99.90;;;;;;4986744;28;20164;-53
2023/12/04 03:10:57;;;;;;;36.50;18.48;;;0.20;99.90;;;;;;4986767;28;20087;-56
2023/12/04 03:13:23;;;;;;;35.03;18.73;;;0.20;99.90;;;;;;4991356;28;20072;-56
2023/12/04 03:15:49;;;;;;;35.35;19.15;;;0.20;99.90;;;;;;4988544;28;20129;-56
2023/12/04 03:18:15;;;;;;;35.42;18.50;;;0.20;99.90;;;;;;4987253;28;20054;-56
2023/12/04 03:20:40;;;;;;;35.97;19.30;;;0.20;99.90;;;;;;4987223;28;20041;-56
2023/12/04 03:23:06;;;;;;;35.35;18.60;;;0.20;99.90;;;;;;4984109;28;20050;-57
2023/12/04 03:25:32;;;;;;;38.42;19.38;;;0.20;99.90;;;;;;4984121;28;20046;-54
2023/12/04 03:27:58;;;;;;;34.95;19.02;;;0.20;99.90;;;;;;4985558;28;20103;-56
2023/12/04 03:30:23;;;;;;;39.97;20.35;;;0.20;99.90;;;;;;4984637;28;20115;-56
2023/12/04 03:32:49;;;;;;;39.65;19.80;;;0.20;99.90;;;;;;4984134;28;20495;-56
2023/12/04 03:35:15;;;;;;;33.67;18.38;;;0.20;99.90;;;;;;4984244;28;20053;-51
2023/12/04 03:37:41;;;;;;;37.78;19.33;;;0.20;99.90;;;;;;4984783;28;20261;-53
2023/12/04 03:40:07;;;;;;;32.65;17.50;;;0.20;99.90;;;;;;4986393;28;20445;-56
2023/12/04 03:42:32;;;;;;;35.47;18.35;;;0.30;99.90;;;;;;4984149;28;20076;-55
2023/12/04 03:44:58;;;;;;;34.53;18.95;;;0.20;99.90;;;;;;4983760;28;20503;-53
2023/12/04 03:47:25;;;;;;;35.10;18.25;;;0.30;99.90;;;;;;4983516;28;20093;-56
2023/12/04 03:49:50;;;;;;;37.40;18.73;;;0.30;99.90;;;;;;4986934;28;20391;-56
2023/12/04 03:52:16;;;;;;;36.88;18.42;;;0.20;99.90;;;;;;4991635;28;20092;-55
2023/12/04 03:54:42;;;;;;;34.70;19.35;;;0.30;99.90;;;;;;4993321;28;20072;-50
2023/12/04 03:57:08;;;;;;;35.75;18.90;;;0.20;99.90;;;;;;4992791;28;20046;-56
2023/12/04 03:59:34;;;;;;;37.60;20.00;;;0.30;99.90;;;;;;4996381;28;20396;-55
2023/12/04 04:02:00;;;;;;;35.45;19.20;;;0.30;99.90;;;;;;4995105;28;20057;-57
2023/12/04 04:04:25;;;;;;;37.88;19.30;;;0.30;99.90;;;;;;4963193;28;20051;-57
2023/12/04 04:06:51;;;;;;;37.13;19.40;;;0.30;99.90;;;;;;4992878;28;20464;-57
2023/12/04 04:09:19;;;;;;;36.22;18.48;;;0.30;99.90;;;;;;4992557;28;20054;-57
2023/12/04 04:11:45;;;;;;;36.33;18.65;;;0.30;99.90;;;;;;4989363;28;20050;-53
2023/12/04 04:14:11;;;;;;;37.92;18.98;;;0.30;99.90;;;;;;4992246;28;20045;-56
2023/12/04 04:16:37;;;;;;;33.97;18.42;;;0.30;99.90;;;;;;4992320;28;20038;-54
2023/12/04 04:19:02;;;;;;;39.05;19.13;;;0.30;99.90;;;;;;4993261;28;20073;-56
2023/12/04 04:21:28;;;;;;;35.80;18.90;;;0.40;99.90;;;;;;4979547;28;20053;-50
2023/12/04 04:23:54;;;;;;;38.35;18.70;;;0.30;99.90;;;;;;4991294;28;20454;-52
2023/12/04 04:26:19;;;;;;;34.35;17.80;;;0.30;99.90;;;;;;4992322;28;20517;-56
2023/12/04 04:28:45;;;;;;;34.65;18.60;;;0.30;99.90;;;;;;4993088;28;20064;-54
2023/12/04 04:31:11;;;;;;;38.03;18.27;;;0.30;99.90;;;;;;4990497;28;20491;-55
2023/12/04 04:33:37;;;;;;;34.22;18.08;;;0.30;99.90;;;;;;4987223;28;20132;-55
2023/12/04 04:36:03;;;;;;;35.33;18.40;;;0.30;99.90;;;;;;4989822;28;20049;-52
2023/12/04 04:38:29;;;;;;;35.60;18.55;;;0.30;99.90;;;;;;4971966;28;20092;-57
2023/12/04 04:40:54;;;;;;;34.67;17.80;;;0.30;99.90;;;;;;4991275;28;20384;-52
2023/12/04 04:43:20;;;;;;;38.60;19.52;;;0.40;99.90;;;;;;4994010;28;20093;-56
2023/12/04 04:45:46;;;;;;;33.25;17.90;;;0.40;99.90;;;;;;4992641;28;20050;-50
2023/12/04 04:48:12;;;;;;;36.42;18.38;;;0.30;99.90;;;;;;4961950;28;20568;-56
2023/12/04 04:50:38;;;;;;;36.92;19.00;;;0.30;99.90;;;;;;4992312;28;20042;-51
2023/12/04 04:53:03;;;;;;;35.58;18.63;;;0.30;99.90;;;;;;4993082;28;20042;-56
2023/12/04 04:55:30;;;;;;;33.88;18.52;;;0.30;99.90;;;;;;4994947;28;20049;-56
2023/12/04 04:57:56;;;;;;;38.60;19.17;;;0.30;99.90;;;;;;4992242;28;20506;-54
2023/12/04 05:00:21;;;;;;;40.55;19.40;;;0.40;99.90;;;;;;4993874;28;20100;-56
2023/12/04 05:02:47;;;;;;;34.35;19.20;;;0.40;99.90;;;;;;4992874;28;20042;-55
2023/12/04 05:05:13;;;;;;;38.47;18.88;;;0.30;99.90;;;;;;4989926;28;20136;-51
2023/12/04 05:07:38;;;;;;;37.17;18.45;;;0.30;99.90;;;;;;4988101;28;20442;-56
2023/12/04 05:10:04;;;;;;;36.28;18.05;;;0.30;99.90;;;;;;4991196;28;20046;-56
2023/12/04 05:12:30;;;;;;;34.50;18.38;;;0.40;99.90;;;;;;4986388;28;20042;-51
2023/12/04 05:14:56;;;;;;;36.35;18.27;;;0.40;99.90;;;;;;4988271;28;20050;-54
2023/12/04 05:17:21;;;;;;;37.17;18.55;;;0.40;99.90;;;;;;4987154;28;20991;-55
2023/12/04 05:19:47;;;;;;;36.95;19.75;;;0.40;99.90;;;;;;4997612;28;20144;-54
2023/12/04 05:22:13;;;;;;;35.72;18.60;;;0.40;99.90;;;;;;4995412;28;20446;-55
2023/12/04 05:24:38;;;;;;;39.22;19.30;;;0.40;99.90;;;;;;4996646;28;20045;-54
2023/12/04 05:27:04;;;;;;;36.05;17.98;;;0.40;99.90;;;;;;4978787;28;20046;-56
2023/12/04 05:29:30;;;;;;;37.40;19.02;;;0.40;99.90;;;;;;4992566;28;20710;-53
2023/12/04 05:31:57;;;;;;;34.22;17.67;;;0.40;99.90;;;;;;4987423;28;20065;-55
2023/12/04 05:34:23;;;;;;;34.45;17.90;;;0.40;99.90;;;;;;4989345;28;20061;-55
2023/12/04 05:36:49;;;;;;;33.90;17.88;;;0.40;99.90;;;;;;4991309;28;20869;-53
2023/12/04 05:39:14;;;;;;;35.15;17.73;;;0.40;99.90;;;;;;4992231;28;20050;-56
2023/12/04 05:41:40;;;;;;;32.42;17.23;;;0.40;99.90;;;;;;4992063;28;20037;-55
2023/12/04 05:44:06;;;;;;;32.38;17.52;;;0.40;99.90;;;;;;4994930;28;20050;-55
2023/12/04 05:46:32;;;;;;;33.95;17.00;;;0.40;99.90;;;;;;4995964;28;20466;-57
2023/12/04 05:48:58;;;;;;;33.70;18.02;;;0.40;99.90;;;;;;4991667;28;20129;-51
2023/12/04 05:51:23;;;;;;;33.75;17.95;;;0.40;99.90;;;;;;4991999;28;20403;-50
2023/12/04 05:53:49;;;;;;;35.60;17.30;;;0.40;99.90;;;;;;4992115;28;20120;-54
2023/12/04 05:56:15;;;;;;;36.30;17.73;;;0.40;99.90;;;;;;4993344;28;20042;-54
2023/12/04 05:58:40;;;;;;;34.08;17.73;;;0.40;99.90;;;;;;4993155;28;20042;-56
2023/12/04 06:01:07;;;;;;;33.15;17.70;;;0.40;99.90;;;;;;4991857;28;20049;-56
2023/12/04 06:03:33;;;;;;;31.73;17.27;;;0.40;99.90;;;;;;4990158;28;20038;-55
2023/12/04 06:05:59;;;;;;;31.60;16.60;;;0.40;99.90;;;;;;4971065;28;20049;-55
2023/12/04 06:08:24;;;;;;;34.22;17.10;;;0.40;99.90;;;;;;4993435;28;20161;-50
2023/12/04 06:10:50;;;;;;;37.63;16.60;;;0.40;99.90;;;;;;4985387;28;20042;-55
2023/12/04 06:13:16;;;;;;;35.70;17.73;;;0.40;99.90;;;;;;4982210;28;20049;-56
2023/12/04 06:15:42;;;;;;;32.17;17.42;;;0.40;99.90;;;;;;4988085;28;20042;-56
2023/12/04 06:18:08;;;;;;;32.97;16.67;;;0.40;99.90;;;;;;4991311;28;20049;-52
2023/12/04 06:20:34;;;;;;;33.08;16.65;;;0.40;99.90;;;;;;4988503;28;20653;-55
2023/12/04 06:22:59;;;;;;;33.35;16.70;;;0.40;99.90;;;;;;4991700;28;20046;-56
2023/12/04 06:25:26;;;;;;;34.08;16.80;;;0.40;99.90;;;;;;4993139;28;20507;-55
2023/12/04 06:27:52;;;;;;;30.67;16.17;;;0.40;99.90;;;;;;4989490;28;20040;-56
2023/12/04 06:30:18;;;;;;;33.08;17.38;;;0.40;99.90;;;;;;4986565;28;20563;-52
2023/12/04 06:32:44;;;;;;;31.42;16.70;;;0.40;99.90;;;;;;4985671;28;20045;-54
2023/12/04 06:35:11;;;;;;;29.52;15.95;;;0.50;99.90;;;;;;4987807;28;20402;-52
2023/12/04 06:37:39;;;;;;;31.40;16.15;;;0.40;99.90;;;;;;4988615;28;20588;-55
2023/12/04 06:40:08;;;;;;;30.92;16.20;;;0.40;99.90;;;;;;4984612;28;20058;-55
2023/12/04 06:42:35;;;;;;;30.20;17.13;;;0.50;99.90;;;;;;4986165;28;20490;-54
2023/12/04 06:45:01;;;;;;;30.25;16.10;;;0.50;99.90;;;;;;4989030;28;20077;-56
2023/12/04 06:47:30;;;;;;;33.92;16.60;;;0.50;99.90;;;;;;4985915;28;20053;-53
2023/12/04 06:49:56;;;;;;;32.95;16.90;;;0.40;99.90;;;;;;4988731;28;20410;-54
2023/12/04 06:52:22;;;;;;;30.85;16.17;;;0.50;99.90;;;;;;4980213;28;20046;-56
2023/12/04 06:54:48;;;;;;;31.65;15.88;;;0.50;99.90;;;;;;4978310;28;20046;-55
2023/12/04 06:57:14;;;;;;;34.55;16.38;;;0.50;99.90;;;;;;4982906;28;20042;-56
2023/12/04 06:59:42;;;;;;;31.13;16.83;;;0.50;99.90;;;;;;4994049;28;20042;-54
2023/12/04 07:02:07;;;;;;;30.23;16.00;;;0.50;99.90;;;;;;4988208;28;20491;-54
2023/12/04 07:04:33;;;;;;;28.17;15.68;;;0.50;99.90;;;;;;4994266;28;20057;-51
2023/12/04 07:07:04;;;;;;;30.10;15.98;;;0.50;99.90;;;;;;4994346;28;20042;-54
2023/12/04 07:09:31;;;;;;;28.65;15.93;;;0.50;99.90;;;;;;4989384;28;20117;-51
2023/12/04 07:11:57;;;;;;;28.40;15.25;;;0.50;99.90;;;;;;4975390;28;20058;-49
2023/12/04 07:14:23;;;;;;;27.95;15.63;;;0.50;99.90;;;;;;4989454;28;20053;-53
2023/12/04 07:16:49;;;;;;;27.95;15.63;;;0.50;99.90;;;;;;4983388;28;20038;-51
2023/12/04 07:19:16;;;;;;;30.33;15.27;;;0.50;99.90;;;;;;4987041;28;20049;-51
2023/12/04 07:21:42;;;;;;;27.83;15.20;;;0.50;99.90;;;;;;4986368;28;20092;-53
2023/12/04 07:24:08;;;;;;;28.08;14.40;;;0.50;99.90;;;;;;4987703;28;20041;-51
2023/12/04 07:26:35;;;;;;;28.63;15.40;;;0.50;99.90;;;;;;4987637;28;20038;-51
2023/12/04 07:29:04;;;;;;;29.80;15.80;;;0.50;99.90;;;;;;4989713;28;20050;-50
2023/12/04 07:31:30;;;;;;;27.85;15.23;;;0.50;99.90;;;;;;4975451;28;20054;-54
2023/12/04 07:33:56;;;;;;;26.80;14.52;;;0.50;99.90;;;;;;4965221;28;20045;-50
2023/12/04 07:36:22;;;;;;;27.30;15.27;;;0.50;99.90;;;;;;4993238;28;20402;-50
2023/12/04 07:38:49;;;;;;;27.33;14.90;;;0.50;99.90;;;;;;4987781;28;20229;-50
2023/12/04 07:41:15;;;;;;;27.27;15.15;;;0.50;99.90;;;;;;4984967;28;20053;-49
2023/12/04 07:43:40;;;;;;;25.60;14.25;;;0.50;99.90;;;;;;4983690;28;20050;-53
2023/12/04 07:46:08;;;;;;;24.92;14.80;;;0.50;99.90;;;;;;4982498;28;20097;-50
2023/12/04 07:48:34;;;;;;;24.52;13.95;;;0.50;99.90;;;;;;4978137;28;20100;-52
2023/12/04 07:51:00;;;;;;;26.17;15.15;;;0.50;99.90;;;;;;4982116;28;20401;-48
2023/12/04 07:53:25;;;;;;;25.30;13.95;;;0.50;99.90;;;;;;4965176;28;20046;-51
2023/12/04 07:55:51;;;;;;;25.92;14.00;;;0.50;99.90;;;;;;4982890;28;20481;-50
2023/12/04 07:58:18;;;;;;;27.65;14.50;;;0.50;99.90;;;;;;4980811;28;20050;-52
2023/12/04 08:00:46;;;;;;;24.77;13.52;;;0.50;99.90;;;;;;4985498;28;20781;-51
2023/12/04 08:03:12;;;;;;;28.52;14.48;;;0.60;99.90;;;;;;4980985;28;20042;-51
2023/12/04 08:05:38;;;;;;;25.95;14.05;;;0.50;99.90;;;;;;4967873;28;20045;-53
2023/12/04 08:08:04;;;;;;;22.77;13.30;;;0.50;99.90;;;;;;4981979;28;20068;-50
2023/12/04 08:10:29;;;;;;;23.15;13.07;;;0.60;99.90;;;;;;4985355;28;20038;-50
2023/12/04 08:12:55;;;;;;;24.52;13.57;;;0.60;99.90;;;;;;4992183;28;20049;-51
2023/12/04 08:15:21;;;;;;;25.48;13.13;;;0.60;99.90;;;;;;4991710;28;20046;-52
2023/12/04 08:17:47;;;;;;;24.50;13.07;;;0.70;99.90;;;;;;4991126;28;20054;-53
2023/12/04 08:20:13;;;;;;;23.17;13.18;;;0.60;99.90;;;;;;4989268;28;20097;-53
2023/12/04 08:22:44;;;;;;;21.02;12.48;;;0.60;99.90;;;;;;4989143;28;20551;-51
2023/12/04 08:25:11;;;;;;;23.98;12.73;;;0.60;99.90;;;;;;4987330;28;20050;-51
2023/12/04 08:27:36;;;;;;;23.25;13.77;;;0.70;99.90;;;;;;4989099;28;20057;-50
2023/12/04 08:30:04;;;;;;;22.63;12.10;;;0.70;99.90;;;;;;4988530;28;21850;-52
2023/12/04 08:32:30;;;;;;;21.60;12.32;;;0.70;99.90;;;;;;4985211;28;20051;-48
2023/12/04 08:34:56;;;;;;;20.25;12.02;;;0.70;99.90;;;;;;4984592;28;20046;-52
2023/12/04 08:37:21;;;;;;;22.77;13.02;;;0.70;99.90;;;;;;4982509;28;20050;-52
2023/12/04 08:39:47;;;;;;;21.42;11.73;;;0.70;99.90;;;;;;4981267;28;20713;-51
2023/12/04 08:42:13;;;;;;;22.38;12.60;;;0.70;99.90;;;;;;4983724;28;20556;-50
2023/12/04 08:44:40;;;;;;;21.40;12.32;;;0.80;99.90;;;;;;4984745;28;20049;-49
2023/12/04 08:47:06;;;;;;;20.45;12.13;;;0.80;99.90;;;;;;4982349;28;20130;-54
2023/12/04 08:49:32;;;;;;;20.48;12.55;;;0.80;99.90;;;;;;4982640;28;20407;-49
2023/12/04 08:51:58;;;;;;;25.08;13.57;;;0.80;99.90;;;;;;4984006;28;20054;-53
2023/12/04 08:54:24;;;;;;;21.75;13.02;;;0.80;99.90;;;;;;4983444;28;20046;-51
2023/12/04 08:56:50;;;;;;;19.85;12.18;;;0.80;99.90;;;;;;4980945;28;20073;-50
2023/12/04 08:59:16;;;;;;;18.88;11.60;;;0.90;99.90;;;;;;4982426;28;20046;-52
2023/12/04 09:01:43;;;;;;;18.70;12.02;;;0.80;99.90;;;;;;4983496;28;20042;-49
2023/12/04 09:04:09;;;;;;;21.17;12.10;;;0.90;99.90;;;;;;4985121;28;20049;-50
2023/12/04 09:06:35;;;;;;;21.30;12.35;;;0.90;99.90;;;;;;4981441;28;20491;-50
2023/12/04 09:09:02;;;;;;;20.45;12.35;;;0.90;99.90;;;;;;4983817;28;20038;-50
2023/12/04 09:11:28;;;;;;;17.90;11.93;;;0.90;99.90;;;;;;4981866;28;20048;-50
2023/12/04 09:13:54;;;;;;;18.83;11.68;;;1.00;99.90;;;;;;4980854;28;20565;-51
2023/12/04 09:16:20;;;;;;;18.35;11.02;;;1.00;99.90;;;;;;4981497;28;20042;-51
2023/12/04 09:18:46;;;;;;;18.23;11.15;;;1.00;99.90;;;;;;4965677;28;20045;-48
2023/12/04 09:21:12;;;;;;;18.48;10.50;;;1.00;99.90;;;;;;4984280;28;20558;-48
2023/12/04 09:23:38;;;;;;;20.00;11.60;;;1.00;99.90;;;;;;4985556;28;20038;-52
2023/12/04 09:26:04;;;;;;;16.67;10.93;;;1.00;99.90;;;;;;4967282;28;20053;-53
2023/12/04 09:28:30;;;;;;;17.88;10.70;;;1.00;99.90;;;;;;4986335;28;20046;-51
2023/12/04 09:30:55;;;;;;;17.95;10.88;;;1.00;99.90;;;;;;4985501;28;20054;-49
2023/12/04 09:33:21;;;;;;;18.92;10.95;;;1.10;99.90;;;;;;4967462;28;20410;-53
2023/12/04 09:35:47;;;;;;;18.33;11.23;;;1.10;99.90;;;;;;4967040;28;20044;-51
2023/12/04 09:38:12;;;;;;;16.30;10.70;;;1.00;99.90;;;;;;4984377;28;20042;-52
2023/12/04 09:40:38;;;;;;;19.92;11.77;;;1.10;99.90;;;;;;4982144;28;20081;-53
2023/12/04 09:43:05;;;;;;;14.13;9.63;;;1.10;99.90;;;;;;4982728;28;20042;-50
2023/12/04 09:45:33;;;;;;;17.33;10.77;;;1.10;99.90;;;;;;4970785;28;20118;-48
2023/12/04 09:47:59;;;;;;;17.35;10.68;;;1.10;99.90;;;;;;4990481;28;20441;-50
2023/12/04 09:50:25;;;;;;;16.13;10.15;;;1.10;99.90;;;;;;4992738;28;20050;-49
2023/12/04 09:52:52;;;;;;;17.73;9.73;;;1.10;99.90;;;;;;4985294;28;20575;-52
2023/12/04 09:55:18;;;;;;;17.33;10.73;;;1.10;99.90;;;;;;4983300;28;20136;-50
2023/12/04 09:57:45;;;;;;;15.93;10.15;;;1.20;99.90;;;;;;4979523;28;20121;-49
2023/12/04 10:00:13;;;;;;;15.60;10.05;;;1.20;99.90;;;;;;4977145;28;20096;-49
2023/12/04 10:02:40;;;;;;;17.90;9.93;;;1.20;99.90;;;;;;4980450;28;20169;-55
2023/12/04 10:05:07;;;;;;;18.20;11.00;;;1.20;99.90;;;;;;4980643;28;20045;-51
2023/12/04 10:07:33;;;;;;;16.08;10.02;;;1.30;99.90;;;;;;4978754;28;20116;-50
2023/12/04 10:09:59;;;;;;;15.50;10.13;;;1.30;99.90;;;;;;4987307;28;20042;-49
2023/12/04 10:12:25;;;;;;;15.45;10.38;;;1.30;99.90;;;;;;4987088;28;20185;-50
2023/12/04 10:15:08;;;;;;;15.60;9.85;;;1.30;99.90;;;;;;4986280;28;20057;-50
2023/12/04 10:17:44;;;;;;;15.85;9.68;;;1.40;99.90;;;;;;4968711;28;20163;-51
2023/12/04 10:20:12;;;;;;;17.90;9.98;;;1.40;99.90;;;;;;4984538;28;20146;-52
2023/12/04 10:23:01;;;;;;;17.27;9.70;;;1.40;99.90;;;;;;4987209;28;20518;-50
2023/12/04 10:25:30;;;;;;;16.73;9.88;;;1.50;99.90;;;;;;4986651;28;20045;-52
2023/12/04 10:28:17;;;;;;;16.13;10.02;;;1.50;99.90;;;;;;4975454;28;20038;-49
2023/12/04 10:30:43;;;;;;;14.52;9.23;;;1.60;99.90;;;;;;4987114;28;20054;-52
2023/12/04 10:33:09;;;;;;;16.17;10.07;;;1.60;99.90;;;;;;4985088;28;20046;-50
2023/12/04 10:35:36;;;;;;;16.05;9.90;;;1.60;99.90;;;;;;4986756;28;20054;-53
2023/12/04 10:38:02;;;;;;;15.82;9.80;;;1.70;99.90;;;;;;4990156;28;20058;-52
2023/12/04 10:40:31;;;;;;;18.50;9.55;;;1.70;99.90;;;;;;4971809;28;20057;-50
2023/12/04 10:43:09;;;;;;;15.82;10.15;;;1.70;99.90;;;;;;4983590;28;20045;-53
2023/12/04 10:45:39;;;;;;;16.73;10.50;;;1.80;99.90;;;;;;4984763;28;20041;-50
2023/12/04 10:48:05;;;;;;;15.30;9.93;;;1.90;99.90;;;;;;4986210;28;20049;-53
2023/12/04 10:50:35;;;;;;;18.98;10.80;;;1.90;99.90;;;;;;4987372;28;20064;-51
2023/12/04 10:53:12;;;;;;;13.45;9.20;;;2.00;99.90;;;;;;4983579;28;20092;-50
2023/12/04 10:55:39;;;;;;;15.57;9.40;;;2.00;99.90;;;;;;4987300;28;20042;-53
2023/12/04 10:58:14;;;;;;;14.75;9.88;;;2.00;99.90;;;;;;4981325;28;20174;-53
2023/12/04 11:00:45;;;;;;;16.35;9.45;;;2.00;99.90;;;;;;4981634;28;20693;-49
2023/12/04 11:03:36;;;;;;;15.60;9.48;;;2.00;99.90;;;;;;4981751;28;20512;-48
2023/12/04 11:06:04;;;;;;;14.90;9.48;;;2.00;99.90;;;;;;4982723;28;20046;-50
2023/12/04 11:08:33;;;;;;;14.98;9.63;;;2.00;99.90;;;;;;4980611;28;20443;-52
2023/12/04 11:11:03;;;;;;;16.55;9.40;;;2.00;99.90;;;;;;4979809;28;20505;-50
2023/12/04 11:13:35;;;;;;;14.55;9.52;;;2.10;99.90;;;;;;4977922;28;20498;-52
2023/12/04 11:16:05;;;;;;;14.27;9.27;;;2.10;99.90;;;;;;4976164;28;20143;-52
2023/12/04 11:18:37;;;;;;;14.10;9.05;;;2.10;99.90;;;;;;4977340;28;20105;-55
2023/12/04 11:21:08;;;;;;;16.13;9.43;;;2.10;99.90;;;;;;4975184;28;20050;-49
2023/12/04 11:23:35;;;;;;;15.35;9.32;;;2.10;99.90;;;;;;4976371;28;20056;-52
2023/12/04 11:26:03;;;;;;;15.02;9.48;;;2.20;99.90;;;;;;4972777;28;20399;-52
2023/12/04 11:28:30;;;;;;;13.27;8.88;;;2.20;99.90;;;;;;4981721;28;21166;-53
2023/12/04 11:30:57;;;;;;;13.95;8.95;;;2.20;99.90;;;;;;4984830;28;20050;-51
2023/12/04 11:33:23;;;;;;;15.52;9.38;;;2.20;99.90;;;;;;4981913;28;20045;-50
2023/12/04 11:35:50;;;;;;;13.77;9.23;;;2.20;99.90;;;;;;4988139;28;20049;-51
2023/12/04 11:38:19;;;;;;;15.50;8.90;;;2.30;99.90;;;;;;4984640;28;20069;-53
2023/12/04 11:40:46;;;;;;;14.15;9.25;;;2.30;99.90;;;;;;4983712;28;20046;-53
2023/12/04 11:43:24;;;;;;;14.10;9.10;;;2.30;99.90;;;;;;4986339;28;20569;-52
2023/12/04 11:45:50;;;;;;;15.05;9.00;;;2.30;99.90;;;;;;4985184;28;20146;-52
2023/12/04 11:48:16;;;;;;;14.48;8.95;;;2.30;99.90;;;;;;4983279;28;20041;-51
2023/12/04 11:50:45;;;;;;;14.43;9.30;;;2.30;99.90;;;;;;4983584;28;20142;-54
2023/12/04 11:53:13;;;;;;;13.30;8.43;;;2.40;99.90;;;;;;4983267;28;20049;-50
2023/12/04 11:55:43;;;;;;;16.08;9.23;;;2.30;99.90;;;;;;4979031;28;20046;-50
2023/12/04 11:58:12;;;;;;;13.15;8.75;;;2.40;99.90;;;;;;4979241;28;20137;-53
2023/12/04 12:00:38;;;;;;;13.32;8.75;;;2.40;99.90;;;;;;4978529;28;20044;-52
2023/12/04 12:03:09;;;;;;;12.38;8.45;;;2.40;99.90;;;;;;4983816;28;20062;-50
2023/12/04 12:05:38;;;;;;;14.15;9.05;;;2.40;99.90;;;;;;4980874;28;20053;-51
2023/12/04 12:08:05;;;;;;;14.05;8.63;;;2.40;99.90;;;;;;4980751;28;20050;-53
2023/12/04 12:10:32;;;;;;;17.60;9.30;;;2.40;99.90;;;;;;4984075;28;20046;-51
2023/12/04 12:12:58;;;;;;;14.13;8.90;;;2.40;99.90;;;;;;4983100;28;20605;-54
2023/12/04 12:15:24;;;;;;;12.88;8.88;;;2.40;99.90;;;;;;4973873;28;20045;-52
2023/12/04 12:17:53;;;;;;;14.35;8.88;;;2.40;99.90;;;;;;4975362;28;23071;-51
2023/12/04 12:20:22;;;;;;;15.32;9.15;;;2.40;99.90;;;;;;4961445;28;20794;-52
2023/12/04 12:22:49;;;;;;;15.45;9.75;;;2.30;99.90;;;;;;4980451;28;20038;-51
2023/12/04 12:25:15;;;;;;;12.07;8.70;;;2.30;99.90;;;;;;4980341;28;20042;-51
2023/12/04 12:27:41;;;;;;;14.10;8.55;;;2.30;99.90;;;;;;4993079;28;20053;-50
2023/12/04 12:30:07;;;;;;;13.85;8.52;;;2.30;99.90;;;;;;4986856;28;20062;-54
2023/12/04 12:32:33;;;;;;;13.77;8.55;;;2.30;99.90;;;;;;4985406;28;20046;-52
2023/12/04 12:34:59;;;;;;;18.55;8.93;;;2.30;99.90;;;;;;4981660;28;20058;-51